Time;durP1;ratioP1;P1;durP2;ratioP2;P2;SDS_P1;SDS_P2;PMS_P1;PMS_P2;Temp;Humidity;BMP_temperature;BMP_pressure;BME280_temperature;BME280_humidity;BME280_pressure;Samples;Min_cycle;Max_cycle;Signal;HPM_P1;HPM_P2
2022/04/19 00:00:48;;;;;;;5.57;5.38;;;;;;;0.91;64.14;100419.59;5053139;28;20056;-63
2022/04/19 00:03:14;;;;;;;5.60;5.40;;;;;;;0.86;66.54;100424.34;5053049;28;20067;-62
2022/04/19 00:05:41;;;;;;;5.50;5.30;;;;;;;0.80;66.91;100417.78;5052928;28;20088;-64
2022/04/19 00:08:09;;;;;;;5.53;5.32;;;;;;;0.81;66.30;100423.88;5044848;28;20477;-64
2022/04/19 00:10:35;;;;;;;5.53;5.32;;;;;;;0.73;65.98;100400.91;5050917;28;20056;-62
2022/04/19 00:13:02;;;;;;;5.80;5.50;;;;;;;0.82;65.46;100415.91;5043094;28;20032;-63
2022/04/19 00:15:30;;;;;;;5.50;5.30;;;;;;;0.78;65.26;100414.47;5032501;28;20366;-62
2022/04/19 00:17:56;;;;;;;5.95;5.65;;;;;;;0.81;65.21;100414.25;5046478;28;20071;-63
2022/04/19 00:20:23;;;;;;;5.80;5.50;;;;;;;0.79;65.22;100416.13;5040388;28;20025;-62
2022/04/19 00:22:51;;;;;;;6.22;5.93;;;;;;;0.79;65.64;100415.28;5052621;28;20024;-62
2022/04/19 00:25:18;;;;;;;6.50;6.20;;;;;;;0.78;66.05;100411.03;5050518;28;20469;-63
2022/04/19 00:27:44;;;;;;;6.10;5.80;;;;;;;0.71;66.69;100417.66;5043614;28;20370;-62
2022/04/19 00:30:10;;;;;;;5.90;5.60;;;;;;;0.74;68.08;100423.50;5047262;28;20017;-62
2022/04/19 00:32:37;;;;;;;5.55;5.35;;;;;;;0.62;68.96;100413.94;5056472;28;20031;-62
2022/04/19 00:35:04;;;;;;;5.80;5.53;;;;;;;0.60;69.78;100415.84;5061518;28;20496;-62
2022/04/19 00:37:33;;;;;;;5.75;5.53;;;;;;;0.58;69.97;100407.28;5045010;28;20025;-63
2022/04/19 00:40:00;;;;;;;5.82;5.53;;;;;;;0.48;71.53;100414.13;5033757;28;20041;-63
2022/04/19 00:42:30;;;;;;;5.70;5.50;;;;;;;0.48;71.59;100414.97;5050432;28;20024;-62
2022/04/19 00:44:57;;;;;;;6.13;5.82;;;;;;;0.56;72.05;100414.41;5052235;28;20075;-62
2022/04/19 00:47:23;;;;;;;6.35;6.05;;;;;;;0.48;72.50;100406.31;5046000;28;20105;-63
2022/04/19 00:49:49;;;;;;;5.90;5.60;;;;;;;0.43;73.53;100404.03;5043864;28;20057;-63
2022/04/19 00:52:15;;;;;;;6.40;6.10;;;;;;;0.47;73.88;100407.25;5036918;28;20087;-63
2022/04/19 00:54:41;;;;;;;6.20;5.90;;;;;;;0.38;74.34;100400.09;5043481;28;20021;-63
2022/04/19 00:57:07;;;;;;;6.07;5.78;;;;;;;0.39;73.84;100405.22;5051750;28;20378;-62
2022/04/19 00:59:33;;;;;;;6.20;5.90;;;;;;;0.37;72.42;100403.63;5046614;28;20125;-62
2022/04/19 01:02:00;;;;;;;5.93;5.63;;;;;;;0.37;72.81;100401.03;5044014;28;20380;-63
2022/04/19 01:04:25;;;;;;;5.60;5.40;;;;;;;0.39;73.07;100405.22;5043300;28;20036;-61
2022/04/19 01:06:52;;;;;;;6.00;5.70;;;;;;;0.33;72.89;100403.03;5044801;28;20388;-62
2022/04/19 01:09:17;;;;;;;5.60;5.40;;;;;;;0.27;72.34;100388.66;5044609;28;20045;-63
2022/04/19 01:14:28;;;;;;;6.10;5.80;;;;;;;0.30;71.94;100386.78;5051462;28;20117;-63
2022/04/19 01:16:55;;;;;;;5.40;5.20;;;;;;;0.31;71.31;100397.13;5039573;28;20453;-64
2022/04/19 01:19:21;;;;;;;5.82;5.55;;;;;;;0.22;71.51;100400.38;5046261;28;20028;-62
2022/04/19 01:21:51;;;;;;;5.50;5.30;;;;;;;0.18;70.68;100401.56;5047470;28;20536;-63
2022/04/19 01:24:18;;;;;;;5.75;5.45;;;;;;;0.29;70.65;100398.97;5039383;28;20068;-62
2022/04/19 01:26:45;;;;;;;6.40;6.10;;;;;;;0.14;72.66;100400.09;5052255;28;20560;-63
2022/04/19 01:29:11;;;;;;;6.03;5.72;;;;;;;0.28;72.64;100403.38;5050209;28;20579;-62
2022/04/19 01:31:38;;;;;;;5.80;5.50;;;;;;;0.19;72.72;100400.59;5051632;28;20021;-62
2022/04/19 01:34:04;;;;;;;5.82;5.57;;;;;;;0.24;71.10;100399.34;5051206;28;20162;-63
2022/04/19 01:36:30;;;;;;;5.40;5.20;;;;;;;0.11;70.25;100392.50;5051097;28;20024;-63
2022/04/19 01:38:55;;;;;;;6.35;6.05;;;;;;;0.05;70.14;100380.72;5043726;28;20481;-63
2022/04/19 01:41:21;;;;;;;5.40;5.20;;;;;;;0.07;69.92;100401.47;5047416;28;20025;-62
2022/04/19 01:43:46;;;;;;;6.47;6.18;;;;;;;0.13;69.56;100403.66;5051165;28;20029;-61
2022/04/19 01:46:12;;;;;;;6.00;5.70;;;;;;;0.04;69.45;100399.09;5051128;28;20027;-62
2022/04/19 01:48:38;;;;;;;6.63;6.28;;;;;;;0.03;69.65;100394.84;5046919;28;20029;-63
2022/04/19 01:51:03;;;;;;;6.22;5.93;;;;;;;0.01;69.90;100401.94;5038826;28;20029;-63
2022/04/19 01:53:29;;;;;;;5.15;4.95;;;;;;;0.00;70.93;100393.28;5033975;28;20552;-62
2022/04/19 01:55:55;;;;;;;6.00;5.70;;;;;;;-0.03;71.24;100401.31;5050911;28;20025;-62
2022/04/19 01:58:21;;;;;;;5.97;5.68;;;;;;;0.03;71.42;100405.28;5050717;28;20464;-63
2022/04/19 02:00:46;;;;;;;6.20;5.90;;;;;;;-0.08;71.50;100399.03;5056957;28;20025;-63
2022/04/19 02:03:12;;;;;;;6.72;6.38;;;;;;;-0.13;72.18;100398.53;5056628;28;20017;-62
2022/04/19 02:05:37;;;;;;;6.80;6.43;;;;;;;-0.18;72.70;100390.22;5052035;28;20052;-62
2022/04/19 02:08:03;;;;;;;6.00;5.70;;;;;;;-0.18;73.63;100392.81;5041796;28;20476;-62
2022/04/19 02:10:29;;;;;;;6.13;5.82;;;;;;;-0.21;73.90;100392.22;5053066;28;20032;-62
2022/04/19 02:12:54;;;;;;;6.22;5.93;;;;;;;-0.21;73.75;100395.66;5039874;28;20469;-63
2022/04/19 02:15:20;;;;;;;6.30;6.00;;;;;;;-0.33;73.00;100396.50;5054857;28;20013;-63
2022/04/19 02:17:47;;;;;;;6.03;5.72;;;;;;;-0.34;71.87;100395.69;5053477;28;20483;-63
2022/04/19 02:20:14;;;;;;;6.15;5.85;;;;;;;-0.36;70.96;100394.13;5054713;28;20476;-63
2022/04/19 02:22:41;;;;;;;6.15;5.85;;;;;;;-0.37;69.84;100393.31;5051791;28;20058;-63
2022/04/19 02:25:07;;;;;;;6.20;5.90;;;;;;;-0.43;69.37;100391.13;5048875;28;20044;-63
2022/04/19 02:27:33;;;;;;;5.70;5.50;;;;;;;-0.40;69.08;100397.88;5054392;28;20032;-62
2022/04/19 02:30:04;;;;;;;6.20;5.90;;;;;;;-0.42;68.72;100398.00;5054509;28;20025;-63
2022/04/19 02:32:31;;;;;;;6.15;5.85;;;;;;;-0.40;68.48;100396.09;5047038;28;20021;-62
2022/04/19 02:34:57;;;;;;;6.53;6.22;;;;;;;-0.46;68.21;100386.09;5065137;28;20518;-61
2022/04/19 02:37:23;;;;;;;6.32;6.03;;;;;;;-0.42;67.93;100400.59;5054517;28;20048;-63
2022/04/19 02:39:49;;;;;;;6.53;6.22;;;;;;;-0.50;68.57;100396.88;5052103;28;20021;-63
2022/04/19 02:42:15;;;;;;;6.53;6.22;;;;;;;-0.50;67.92;100408.13;5047191;28;20447;-63
2022/04/19 02:44:41;;;;;;;7.05;6.65;;;;;;;-0.49;67.62;100404.56;5053905;28;20021;-63
2022/04/19 02:47:07;;;;;;;6.72;6.35;;;;;;;-0.58;67.62;100398.25;5045693;28;20035;-62
2022/04/19 02:49:33;;;;;;;5.47;5.28;;;;;;;-0.61;67.89;100389.78;5042737;28;20025;-62
2022/04/19 02:51:59;;;;;;;7.40;7.00;;;;;;;-0.60;68.14;100404.47;5052935;28;20094;-63
2022/04/19 02:54:24;;;;;;;6.03;5.72;;;;;;;-0.61;68.37;100395.00;5053999;28;20016;-63
2022/04/19 02:56:50;;;;;;;6.28;5.97;;;;;;;-0.67;68.45;100404.06;5038414;28;20076;-63
2022/04/19 02:59:16;;;;;;;6.07;5.78;;;;;;;-0.69;68.67;100407.72;5050118;28;20037;-62
2022/04/19 03:01:42;;;;;;;5.57;5.38;;;;;;;-0.72;69.29;100406.16;5050611;28;20555;-63
2022/04/19 03:04:07;;;;;;;6.40;6.10;;;;;;;-0.76;69.40;100406.47;5054216;28;20029;-63
2022/04/19 03:06:33;;;;;;;6.03;5.72;;;;;;;-0.85;69.59;100406.16;5054000;28;20025;-63
2022/04/19 03:08:59;;;;;;;6.57;6.28;;;;;;;-0.85;70.05;100406.16;5045405;28;20538;-64
2022/04/19 03:11:24;;;;;;;5.60;5.40;;;;;;;-0.81;69.68;100408.56;5052133;28;20029;-62
2022/04/19 03:13:50;;;;;;;6.20;5.90;;;;;;;-0.81;69.69;100409.38;5045224;28;20033;-62
2022/04/19 03:16:15;;;;;;;7.30;6.90;;;;;;;-0.87;70.98;100413.25;5064981;28;20082;-63
2022/04/19 03:18:42;;;;;;;6.57;6.28;;;;;;;-0.93;71.13;100405.88;5053558;28;20111;-63
2022/04/19 03:21:11;;;;;;;6.18;5.88;;;;;;;-0.85;70.75;100415.75;5053582;28;20464;-64
2022/04/19 03:29:07;;;;;;;6.75;6.40;;;;;;;-0.69;70.38;100420.75;5036141;28;20036;-64
2022/04/19 03:31:34;;;;;;;6.32;6.03;;;;;;;-0.68;71.07;100419.81;5040703;28;20451;-64
2022/04/19 03:34:00;;;;;;;6.25;5.95;;;;;;;-0.70;71.04;100426.91;5062657;28;20025;-62
2022/04/19 03:36:25;;;;;;;7.38;6.97;;;;;;;-0.52;70.65;100433.44;5052424;28;20029;-64
2022/04/19 03:38:52;;;;;;;6.88;6.47;;;;;;;-0.37;70.31;100435.00;5048209;28;20475;-62
2022/04/19 03:41:18;;;;;;;6.45;6.15;;;;;;;-0.31;70.06;100431.13;5045566;28;20027;-62
2022/04/19 03:43:43;;;;;;;6.90;6.50;;;;;;;-0.34;70.10;100428.72;5051712;28;20032;-62
2022/04/19 03:46:09;;;;;;;6.63;6.32;;;;;;;-0.15;69.51;100433.47;5045946;28;20039;-63
2022/04/19 03:48:35;;;;;;;6.32;6.03;;;;;;;-0.13;69.78;100429.84;5043671;28;20465;-63
2022/04/19 03:51:03;;;;;;;6.10;5.80;;;;;;;-0.09;69.55;100433.88;5044012;28;21514;-63
2022/04/19 03:53:28;;;;;;;6.30;6.00;;;;;;;-0.04;69.21;100437.00;5043689;28;20020;-63
2022/04/19 03:55:54;;;;;;;7.13;6.72;;;;;;;0.17;68.76;100441.63;5052467;28;20048;-62
2022/04/19 03:58:19;;;;;;;7.20;6.80;;;;;;;0.31;68.53;100440.63;5039285;28;20052;-63
2022/04/19 04:00:46;;;;;;;6.55;6.25;;;;;;;0.70;67.19;100440.31;5045336;28;20036;-64
2022/04/19 04:03:11;;;;;;;6.80;6.43;;;;;;;1.83;63.17;100449.94;5038747;28;20146;-62
2022/04/19 04:05:37;;;;;;;7.32;6.93;;;;;;;2.07;62.04;100449.81;5051058;28;20029;-63
2022/04/19 04:08:02;;;;;;;6.90;6.50;;;;;;;1.75;63.52;100456.72;5040378;28;20025;-62
2022/04/19 04:10:28;;;;;;;6.75;6.38;;;;;;;2.97;60.02;100452.91;5039611;28;20026;-62
2022/04/19 04:12:53;;;;;;;6.65;6.35;;;;;;;4.88;54.90;100459.03;5050472;28;20032;-62
2022/04/19 04:15:19;;;;;;;6.63;6.32;;;;;;;4.83;53.36;100458.59;5045260;28;20021;-62
2022/04/19 04:17:44;;;;;;;5.47;5.28;;;;;;;5.63;51.44;100462.59;5035914;28;20104;-63
2022/04/19 04:20:10;;;;;;;5.95;5.65;;;;;;;6.09;50.48;100472.22;5050124;28;20056;-61
2022/04/19 04:22:36;;;;;;;6.00;5.70;;;;;;;7.09;46.51;100463.31;5036397;28;20472;-62
2022/04/19 04:25:02;;;;;;;6.30;6.00;;;;;;;7.51;45.45;100459.97;5044878;28;20035;-63
2022/04/19 04:27:28;;;;;;;5.95;5.65;;;;;;;7.92;43.52;100475.00;5046667;28;20138;-63
2022/04/19 04:29:54;;;;;;;6.45;6.15;;;;;;;8.47;41.85;100468.44;5031659;28;20029;-63
2022/04/19 04:32:19;;;;;;;7.25;6.93;;;;;;;9.71;39.26;100470.88;5041714;28;20028;-62
2022/04/19 04:34:45;;;;;;;6.80;6.50;;;;;;;10.52;37.72;100476.63;5044391;28;20029;-64
2022/04/19 04:37:10;;;;;;;6.68;6.38;;;;;;;10.29;38.82;100483.75;5056608;28;20024;-64
2022/04/19 04:39:36;;;;;;;5.82;5.63;;;;;;;11.17;36.78;100477.97;5061016;28;20034;-64
2022/04/19 04:42:02;;;;;;;6.18;5.88;;;;;;;11.86;35.76;100472.47;5042523;28;20103;-64
2022/04/19 04:44:28;;;;;;;6.63;6.32;;;;;;;11.77;33.96;100474.38;5059069;28;20061;-64
2022/04/19 04:49:39;;;;;;;6.50;6.20;;;;;;;11.98;33.90;100475.50;5036090;28;20047;-63
2022/04/19 04:52:05;;;;;;;6.53;6.22;;;;;;;13.81;30.52;100476.59;5049921;28;20222;-63
2022/04/19 04:54:31;;;;;;;7.18;6.88;;;;;;;12.70;32.13;100481.63;5060057;28;20013;-63
2022/04/19 04:56:56;;;;;;;6.50;6.20;;;;;;;12.80;32.87;100483.16;5060333;28;20124;-63
2022/04/19 04:59:22;;;;;;;6.68;6.38;;;;;;;12.15;32.17;100477.75;5056178;28;20468;-63
2022/04/19 05:01:48;;;;;;;6.55;6.25;;;;;;;13.15;31.13;100478.78;5037706;28;20044;-62
2022/04/19 05:04:13;;;;;;;7.00;6.70;;;;;;;13.46;30.55;100481.09;5056553;28;20395;-63
2022/04/19 05:06:38;;;;;;;7.40;7.10;;;;;;;15.40;28.17;100482.31;5054911;28;20040;-62
2022/04/19 05:09:04;;;;;;;7.00;6.70;;;;;;;15.88;27.07;100485.53;5049093;28;20469;-64
2022/04/19 05:11:30;;;;;;;6.90;6.60;;;;;;;15.98;26.98;100485.09;5048490;28;20443;-61
2022/04/19 05:13:55;;;;;;;7.43;7.13;;;;;;;16.63;26.87;100483.16;5055292;28;20021;-63
2022/04/19 05:16:21;;;;;;;7.50;7.20;;;;;;;16.67;25.22;100487.06;5035433;28;20033;-64
2022/04/19 05:18:46;;;;;;;7.55;7.25;;;;;;;17.12;25.24;100489.66;5034655;28;20396;-64
2022/04/19 05:21:12;;;;;;;7.05;6.75;;;;;;;16.24;26.45;100485.00;5040257;28;20396;-62
2022/04/19 05:23:38;;;;;;;6.80;6.50;;;;;;;17.43;24.66;100495.97;5042412;28;20132;-64
2022/04/19 05:26:03;;;;;;;6.95;6.65;;;;;;;17.88;24.75;100496.59;5039313;28;20033;-63
2022/04/19 05:28:29;;;;;;;7.30;7.00;;;;;;;18.33;23.66;100499.75;5042336;28;20025;-62
2022/04/19 05:30:55;;;;;;;7.35;7.05;;;;;;;17.87;23.83;100498.44;5045292;28;20104;-63
2022/04/19 05:33:21;;;;;;;6.68;6.38;;;;;;;18.59;23.13;100501.28;5046470;28;20392;-62
2022/04/19 05:35:46;;;;;;;7.05;6.75;;;;;;;18.45;22.77;100497.97;5057089;28;20025;-62
2022/04/19 05:38:12;;;;;;;7.30;7.00;;;;;;;17.87;23.33;100487.72;5045278;28;20029;-64
2022/04/19 05:40:40;;;;;;;7.30;7.00;;;;;;;17.85;23.52;100491.69;5054381;28;20048;-63
2022/04/19 05:43:06;;;;;;;7.38;7.07;;;;;;;18.03;22.59;100496.22;5067051;28;20393;-63
2022/04/19 05:45:32;;;;;;;7.10;6.80;;;;;;;18.06;23.27;100491.19;5058905;28;20021;-64
2022/04/19 05:47:58;;;;;;;7.40;7.10;;;;;;;18.30;22.62;100488.66;5053123;28;20091;-63
2022/04/19 05:50:23;;;;;;;8.13;7.82;;;;;;;17.80;23.46;100499.56;5049853;28;20473;-65
2022/04/19 05:52:49;;;;;;;6.80;6.50;;;;;;;17.94;23.69;100493.00;5048429;28;20033;-63
2022/04/19 05:55:15;;;;;;;7.15;6.85;;;;;;;17.47;23.49;100491.81;5048543;28;20488;-63
2022/04/19 05:57:40;;;;;;;7.10;6.80;;;;;;;17.53;23.78;100493.59;5048185;28;20068;-64
2022/04/19 06:00:06;;;;;;;7.03;6.72;;;;;;;17.24;24.33;100495.91;5066586;28;20021;-64
2022/04/19 06:05:16;;;;;;;7.15;6.85;;;;;;;17.16;24.05;100490.84;5045619;28;20511;-63
2022/04/19 06:07:44;;;;;;;6.80;6.50;;;;;;;18.53;22.62;100488.75;5055432;28;20036;-64
2022/04/19 06:10:09;;;;;;;7.07;6.78;;;;;;;19.07;21.92;100492.31;5050965;28;20032;-67
2022/04/19 06:12:35;;;;;;;7.10;6.80;;;;;;;18.97;22.43;100495.59;5049861;28;20025;-67
2022/04/19 06:15:00;;;;;;;7.40;7.10;;;;;;;18.88;22.65;100496.16;5049911;28;20486;-63
2022/04/19 06:17:32;;;;;;;7.40;7.10;;;;;;;20.08;21.33;100499.22;5050653;28;20020;-62
2022/04/19 06:19:58;;;;;;;7.10;6.80;;;;;;;20.55;20.76;100501.78;5060561;28;20029;-63
2022/04/19 06:22:23;;;;;;;7.30;7.00;;;;;;;19.57;21.32;100505.38;5039324;28;20479;-62
2022/04/19 06:24:48;;;;;;;7.40;7.10;;;;;;;20.07;21.67;100502.97;5062862;28;20024;-63
2022/04/19 06:27:14;;;;;;;7.20;6.90;;;;;;;20.01;21.30;100503.94;5057118;28;20071;-64
2022/04/19 06:29:39;;;;;;;7.10;6.80;;;;;;;21.04;20.59;100506.69;5051322;28;20033;-64
2022/04/19 06:32:05;;;;;;;7.10;6.80;;;;;;;19.96;21.17;100503.81;5046241;28;20051;-63
2022/04/19 06:34:31;;;;;;;7.20;6.90;;;;;;;20.98;20.70;100509.31;5042439;28;20028;-63
2022/04/19 06:36:56;;;;;;;7.20;6.90;;;;;;;20.45;21.03;100506.19;5037230;28;20032;-62
2022/04/19 06:39:22;;;;;;;7.10;6.80;;;;;;;20.81;21.17;100496.88;5055460;28;20465;-63
2022/04/19 06:41:50;;;;;;;7.07;6.78;;;;;;;21.05;21.04;100513.72;5038458;28;20116;-62
2022/04/19 06:44:17;;;;;;;7.00;6.70;;;;;;;20.79;21.07;100518.69;5051417;28;20021;-64
2022/04/19 06:46:47;;;;;;;6.80;6.50;;;;;;;20.40;21.65;100513.06;5045944;28;20035;-64
2022/04/19 06:49:13;;;;;;;6.82;6.53;;;;;;;21.71;20.87;100523.72;5046509;28;20045;-64
2022/04/19 06:51:38;;;;;;;7.00;6.70;;;;;;;20.30;21.53;100512.88;5048970;28;20507;-63
2022/04/19 06:54:04;;;;;;;6.90;6.60;;;;;;;21.08;20.55;100511.38;5048861;28;20471;-62
2022/04/19 06:56:31;;;;;;;6.82;6.53;;;;;;;21.50;19.96;100519.06;5053254;28;20187;-63
2022/04/19 06:58:56;;;;;;;6.82;6.53;;;;;;;21.42;19.95;100519.50;5054026;28;20530;-62
2022/04/19 07:01:23;;;;;;;7.25;6.95;;;;;;;21.49;19.90;100518.25;5042759;28;20120;-62
2022/04/19 07:03:49;;;;;;;7.20;6.90;;;;;;;21.64;20.09;100514.16;5038628;28;20028;-65
2022/04/19 07:06:15;;;;;;;7.05;6.75;;;;;;;21.30;20.07;100516.03;5045486;28;20016;-64
2022/04/19 07:08:40;;;;;;;6.90;6.60;;;;;;;21.25;20.20;100514.06;5039277;28;20111;-63
2022/04/19 07:11:06;;;;;;;7.00;6.70;;;;;;;21.88;20.12;100509.34;5048609;28;20017;-63
2022/04/19 07:13:31;;;;;;;6.80;6.50;;;;;;;22.62;19.04;100507.00;5044541;28;20035;-63
2022/04/19 07:15:57;;;;;;;6.88;6.57;;;;;;;22.33;19.23;100503.75;5051972;28;20499;-63
2022/04/19 07:18:23;;;;;;;6.80;6.50;;;;;;;22.77;19.35;100504.50;5053480;28;20024;-64
2022/04/19 07:29:02;;;;;;;7.00;6.70;;;;;;;22.13;19.55;100496.22;5049621;28;20082;-64
2022/04/19 07:31:28;;;;;;;7.05;6.75;;;;;;;21.78;20.33;100491.13;5037809;28;20037;-64
2022/04/19 07:33:54;;;;;;;6.88;6.57;;;;;;;21.43;20.59;100491.44;5055562;28;20031;-63
2022/04/19 07:36:20;;;;;;;6.88;6.57;;;;;;;22.12;19.69;100489.19;5055905;28;20383;-64
2022/04/19 07:38:46;;;;;;;6.88;6.57;;;;;;;21.52;20.12;100488.09;5046281;28;20457;-65
2022/04/19 07:41:12;;;;;;;6.85;6.55;;;;;;;19.97;21.88;100488.47;5055196;28;20378;-65
2022/04/19 07:43:38;;;;;;;6.90;6.60;;;;;;;22.71;19.48;100483.06;5047316;28;20400;-65
2022/04/19 07:46:10;;;;;;;7.10;6.80;;;;;;;22.95;19.03;100487.09;5057622;28;20082;-65
2022/04/19 07:48:35;;;;;;;7.03;6.72;;;;;;;22.93;19.40;100485.72;5038764;28;20460;-65
2022/04/19 07:51:01;;;;;;;7.13;6.82;;;;;;;22.46;19.58;100483.59;5060003;28;20048;-64
2022/04/19 07:53:26;;;;;;;7.00;6.70;;;;;;;22.22;19.88;100481.19;5040661;28;20026;-63
2022/04/19 07:55:55;;;;;;;7.13;6.82;;;;;;;22.54;19.24;100478.53;5036324;28;20056;-63
2022/04/19 07:58:20;;;;;;;7.18;6.88;;;;;;;22.80;19.33;100476.91;5044925;28;20023;-63
2022/04/19 08:00:46;;;;;;;7.30;7.00;;;;;;;19.31;22.60;100474.34;5051988;28;20108;-63
2022/04/19 08:03:12;;;;;;;7.30;7.00;;;;;;;21.60;20.39;100465.25;5040971;28;20484;-63
2022/04/19 08:05:39;;;;;;;7.45;7.15;;;;;;;20.91;21.31;100465.50;5046390;28;20058;-63
2022/04/19 08:08:05;;;;;;;7.20;6.90;;;;;;;20.91;20.97;100460.09;5064935;28;20048;-63
2022/04/19 08:10:31;;;;;;;7.55;7.25;;;;;;;18.47;23.93;100457.44;5043347;28;20060;-64
2022/04/19 08:12:57;;;;;;;7.88;7.57;;;;;;;19.50;22.52;100462.41;5068116;28;20024;-62
2022/04/19 08:15:23;;;;;;;7.03;6.72;;;;;;;18.89;21.88;100454.78;5043990;28;20025;-64
2022/04/19 08:17:49;;;;;;;7.00;6.70;;;;;;;14.62;26.58;100444.69;5045881;28;20032;-63
2022/04/19 08:20:15;;;;;;;7.80;7.50;;;;;;;12.32;28.42;100441.13;5059062;28;20536;-64
2022/04/19 08:22:42;;;;;;;8.25;7.85;;;;;;;15.47;26.63;100443.03;5046723;28;20749;-64
2022/04/19 08:25:10;;;;;;;7.15;6.85;;;;;;;14.02;26.94;100444.47;5055746;28;20070;-64
2022/04/19 08:27:40;;;;;;;7.10;6.80;;;;;;;14.40;26.95;100432.50;5058180;28;20033;-62
2022/04/19 08:30:08;;;;;;;7.22;6.93;;;;;;;16.91;24.38;100428.38;5039060;28;20028;-63
2022/04/19 08:32:33;;;;;;;7.68;7.38;;;;;;;17.30;24.48;100419.16;5046452;28;20044;-64
2022/04/19 08:34:59;;;;;;;6.55;6.25;;;;;;;17.66;23.44;100415.69;5050703;28;20419;-62
2022/04/19 08:37:32;;;;;;;7.70;7.40;;;;;;;16.95;23.78;100418.84;5039323;28;20017;-64
2022/04/19 08:39:58;;;;;;;7.55;7.25;;;;;;;18.01;23.17;100420.47;5050797;28;20058;-63
2022/04/19 08:42:24;;;;;;;7.60;7.30;;;;;;;18.02;23.02;100416.72;5042217;28;20120;-63
2022/04/19 08:44:50;;;;;;;6.80;6.50;;;;;;;17.97;23.06;100409.34;5041068;28;20031;-64
2022/04/19 08:47:16;;;;;;;7.18;6.88;;;;;;;17.25;23.87;100403.72;5051918;28;20478;-63
2022/04/19 08:49:43;;;;;;;6.90;6.60;;;;;;;17.44;23.55;100411.81;5044682;28;20444;-65
2022/04/19 08:52:09;;;;;;;6.85;6.55;;;;;;;16.80;23.69;100401.25;5036665;28;20810;-63
2022/04/19 08:57:31;;;;;;;;;;;;;;;16.70;24.63;100398.25;5053337;28;20111;-63
2022/04/19 09:00:02;;;;;;;6.63;6.32;;;;;;;16.87;23.13;100389.66;5047056;28;19909;-63
2022/04/19 09:02:29;;;;;;;6.85;6.55;;;;;;;16.75;23.47;100389.56;5045895;28;20032;-65
2022/04/19 09:05:26;;;;;;;7.20;6.90;;;;;;;17.05;23.32;100392.41;5052591;28;20078;-64
2022/04/19 09:07:53;;;;;;;6.90;6.60;;;;;;;16.22;24.35;100381.84;5050181;28;20028;-64
2022/04/19 09:10:26;;;;;;;6.82;6.53;;;;;;;16.20;24.25;100373.22;5041658;28;20032;-65
2022/04/19 09:13:02;;;;;;;7.35;7.05;;;;;;;16.46;23.89;100380.28;5041325;28;20071;-62
2022/04/19 09:16:02;;;;;;;7.10;6.80;;;;;;;16.23;24.37;100362.91;5042040;28;20036;-62
2022/04/19 09:18:33;;;;;;;6.80;6.50;;;;;;;16.43;24.28;100369.97;5047297;28;20477;-64
2022/04/19 09:21:00;;;;;;;7.07;6.78;;;;;;;16.77;23.68;100352.66;5043370;28;20067;-64
2022/04/19 09:23:27;;;;;;;7.00;6.70;;;;;;;17.05;23.59;100354.88;5053179;28;20035;-64
2022/04/19 09:25:56;;;;;;;6.88;6.57;;;;;;;15.60;24.78;100352.09;5046052;28;20497;-64
2022/04/19 09:28:22;;;;;;;6.90;6.60;;;;;;;16.45;24.34;100349.16;5031747;28;20025;-64
2022/04/19 09:30:56;;;;;;;9.70;9.20;;;;;;;16.92;23.81;100355.00;5047665;28;20072;-65
2022/04/19 09:33:23;;;;;;;6.45;6.15;;;;;;;16.24;25.19;100350.34;5047694;28;20056;-63
2022/04/19 09:35:55;;;;;;;6.93;6.63;;;;;;;15.55;26.37;100353.75;5055528;28;20537;-64
2022/04/19 09:38:50;;;;;;;6.40;6.10;;;;;;;15.26;26.13;100363.06;5045903;28;20481;-62
2022/04/19 09:41:29;;;;;;;6.75;6.45;;;;;;;16.25;25.01;100360.00;5042961;28;20507;-62
2022/04/19 09:44:12;;;;;;;7.30;7.00;;;;;;;15.46;26.43;100355.84;5041626;28;20060;-62
2022/04/19 09:46:38;;;;;;;6.88;6.57;;;;;;;15.75;25.32;100357.19;5042132;28;20079;-63
2022/04/19 09:49:04;;;;;;;7.00;6.70;;;;;;;15.51;25.64;100349.88;5057472;28;20029;-63
2022/04/19 09:51:31;;;;;;;6.80;6.50;;;;;;;15.42;25.12;100350.09;5046803;28;20082;-61
2022/04/19 09:53:57;;;;;;;6.78;6.47;;;;;;;15.06;25.84;100342.59;5045284;28;20083;-62
2022/04/19 09:56:22;;;;;;;6.70;6.40;;;;;;;14.58;26.53;100331.31;5054595;28;20048;-62
2022/04/19 09:58:53;;;;;;;7.00;6.70;;;;;;;14.14;26.28;100353.19;5031768;28;20025;-63
2022/04/19 10:09:35;;;;;;;6.50;6.20;;;;;;;13.64;27.52;100341.97;5045288;28;20793;-62
2022/04/19 10:12:02;;;;;;;6.95;6.65;;;;;;;13.76;26.91;100351.06;5060309;28;20520;-62
2022/04/19 10:14:30;;;;;;;6.90;6.60;;;;;;;14.45;26.54;100353.44;5046666;28;20032;-63
2022/04/19 10:16:58;;;;;;;6.30;6.00;;;;;;;14.36;26.49;100344.00;5039678;28;20511;-62
2022/04/19 10:19:25;;;;;;;8.70;8.30;;;;;;;13.78;27.69;100341.00;5052637;28;20058;-62
2022/04/19 10:21:52;;;;;;;8.38;7.97;;;;;;;14.03;27.39;100335.97;5045075;28;20104;-62
2022/04/19 10:24:18;;;;;;;6.78;6.47;;;;;;;13.63;27.76;100338.47;5053355;28;20057;-63
2022/04/19 10:26:51;;;;;;;6.72;6.43;;;;;;;14.07;27.05;100335.34;5053496;28;20558;-61
2022/04/19 10:29:30;;;;;;;7.60;7.30;;;;;;;14.20;26.82;100339.06;5041253;28;20033;-62
2022/04/19 10:32:01;;;;;;;7.05;6.75;;;;;;;14.13;26.95;100339.03;5044655;28;20020;-62
2022/04/19 10:34:33;;;;;;;6.85;6.55;;;;;;;14.03;26.74;100342.13;5053291;28;20036;-62
2022/04/19 10:37:21;;;;;;;7.07;6.78;;;;;;;13.32;27.33;100336.31;5055027;28;20396;-63
2022/04/19 10:40:04;;;;;;;6.93;6.63;;;;;;;13.88;26.69;100343.28;5041053;28;20109;-64
2022/04/19 10:42:37;;;;;;;7.38;7.07;;;;;;;13.99;26.90;100332.03;5037448;28;20477;-63
2022/04/19 10:45:12;;;;;;;6.60;6.30;;;;;;;13.68;27.13;100327.22;5053914;28;20060;-63
2022/04/19 10:47:58;;;;;;;7.07;6.78;;;;;;;13.86;26.75;100326.66;5048256;28;20023;-62
2022/04/19 10:50:28;;;;;;;7.53;7.22;;;;;;;13.83;26.53;100330.56;5047658;28;20033;-61
2022/04/19 10:52:58;;;;;;;6.53;6.22;;;;;;;14.19;26.41;100334.75;5051629;28;20052;-61
2022/04/19 10:55:27;;;;;;;6.32;6.03;;;;;;;14.22;26.50;100329.00;5053143;28;20494;-62
2022/04/19 11:00:56;;;;;;;6.85;6.55;;;;;;;13.74;28.41;100324.59;5040288;28;20029;-63
2022/04/19 11:03:37;;;;;;;6.75;6.45;;;;;;;14.46;26.66;100324.94;5045449;28;20028;-62
2022/04/19 11:06:05;;;;;;;6.47;6.18;;;;;;;15.25;26.50;100322.16;5048915;28;20025;-62
2022/04/19 11:08:33;;;;;;;6.57;6.28;;;;;;;14.49;27.08;100317.34;5054705;28;20029;-62
2022/04/19 11:10:59;;;;;;;6.50;6.20;;;;;;;14.77;26.34;100327.81;5040978;28;20067;-63
2022/04/19 11:13:31;;;;;;;6.88;6.57;;;;;;;14.46;27.20;100319.59;5047162;28;20017;-62
2022/04/19 11:16:00;;;;;;;6.47;6.18;;;;;;;14.32;26.93;100326.75;5042981;28;20108;-63
2022/04/19 11:18:26;;;;;;;6.85;6.55;;;;;;;13.96;27.80;100321.78;5045992;28;20024;-63
2022/04/19 11:20:56;;;;;;;6.78;6.47;;;;;;;14.37;27.29;100322.44;5050079;28;20147;-63
2022/04/19 11:23:27;;;;;;;6.80;6.50;;;;;;;14.82;26.92;100316.50;5044285;28;20029;-63
2022/04/19 11:25:56;;;;;;;6.82;6.53;;;;;;;15.10;26.81;100317.06;5041674;28;20016;-62
2022/04/19 11:28:30;;;;;;;6.45;6.15;;;;;;;15.00;26.47;100307.88;5055859;28;20029;-63
2022/04/19 11:30:55;;;;;;;6.80;6.50;;;;;;;15.24;26.09;100311.69;5045631;28;20052;-63
2022/04/19 11:33:26;;;;;;;6.70;6.40;;;;;;;15.08;26.31;100303.13;5059036;28;20056;-63
2022/04/19 11:36:07;;;;;;;7.40;7.10;;;;;;;14.91;25.89;100301.94;5066698;28;20025;-65
2022/04/19 11:38:35;;;;;;;6.60;6.30;;;;;;;14.85;26.62;100303.56;5056505;28;20483;-65
2022/04/19 11:46:44;;;;;;;6.45;6.15;;;;;;;12.75;28.47;100297.41;5039255;28;20454;-62
2022/04/19 11:49:20;;;;;;;6.63;6.32;;;;;;;13.78;26.56;100301.00;5047367;28;20051;-62
2022/04/19 11:51:55;;;;;;;7.00;6.70;;;;;;;13.22;27.13;100290.53;5050571;28;20499;-62
2022/04/19 11:54:26;;;;;;;7.22;6.93;;;;;;;14.45;26.29;100277.91;5051354;28;20031;-63
2022/04/19 11:57:03;;;;;;;7.38;7.07;;;;;;;14.29;26.17;100279.13;5046610;28;20091;-63
2022/04/19 11:59:36;;;;;;;6.95;6.65;;;;;;;15.06;26.08;100278.47;5035493;28;20106;-64
2022/04/19 12:02:04;;;;;;;7.35;7.05;;;;;;;14.36;26.24;100282.63;5042979;28;20039;-62
2022/04/19 12:04:30;;;;;;;7.03;6.72;;;;;;;14.47;25.70;100271.38;5036768;28;20101;-62
2022/04/19 12:07:03;;;;;;;6.78;6.47;;;;;;;14.47;25.63;100286.53;5057162;28;20013;-62
2022/04/19 12:09:30;;;;;;;6.47;6.18;;;;;;;14.62;25.21;100271.97;5057239;28;20020;-61